.
WxDataArchive / Data Records for 2007-12-26
2007-12-25 December 2007 2007-12-27

Data Records for Wednesday, 26 December 2007

Time	Temp	Chill	HIndex	Humid	Dewpt	 Wind 	HiWind	WindDir	Rain 	Barom 
-----	----	-----	------	-----	-----	------	------	-------	-----	----- 
00:00	22.1	22.1	22.1	92	20.1	0	0	---	0.00	30.159 
00:05	22.1	22.1	22.1	92	20.1	0	0	---	0.00	30.154 
00:10	21.9	21.9	21.9	92	19.9	0	0	---	0.00	30.153 
00:15	21.8	21.8	21.8	92	19.8	0	0	---	0.00	30.147 
00:20	21.8	21.8	21.8	92	19.8	0	0	---	0.00	30.147 
00:25	21.6	21.6	21.6	92	19.6	0	0	---	0.00	30.147 
00:30	21.4	21.4	21.4	92	19.4	0	0	---	0.00	30.147 
00:35	21.3	21.3	21.3	92	19.3	0	0	---	0.00	30.148 
00:40	21.3	21.3	21.3	92	19.3	0	0	---	0.00	30.146 
00:45	21.3	21.3	21.3	92	19.3	0	0	---	0.00	30.142 
00:50	21.3	21.3	21.3	92	19.3	0	0	---	0.00	30.140 
00:55	21.3	21.3	21.3	92	19.3	0	0	---	0.00	30.138 
01:00	21.3	21.3	21.3	92	19.3	0	0	---	0.00	30.139 
01:05	21.1	21.1	21.1	92	19.1	0	0	---	0.00	30.143 
01:10	21.0	21.0	21.0	92	19.0	0	0	---	0.00	30.137 
01:15	21.0	21.0	21.0	92	19.0	0	0	---	0.00	30.136 
01:20	20.8	20.8	20.8	92	18.9	0	0	---	0.00	30.136 
01:25	20.6	20.6	20.6	92	18.7	0	0	---	0.00	30.133 
01:30	20.6	20.6	20.6	92	18.7	0	0	---	0.00	30.132 
01:35	21.0	21.0	21.0	92	19.0	0	0	---	0.00	30.131 
01:40	21.0	21.0	21.0	92	19.0	0	0	---	0.00	30.131 
01:45	21.0	21.0	21.0	92	19.0	0	0	---	0.00	30.132 
01:50	21.0	21.0	21.0	92	19.0	0	0	---	0.00	30.131 
01:55	20.8	20.8	20.8	92	18.9	0	0	---	0.00	30.132 
02:00	20.6	20.6	20.6	92	18.7	0	0	---	0.00	30.131 
02:05	20.5	20.5	20.5	92	18.6	0	0	---	0.00	30.129 
02:10	20.5	20.5	20.5	92	18.6	0	0	---	0.00	30.130 
02:15	20.5	20.5	20.5	92	18.6	0	0	---	0.00	30.130 
02:20	20.5	20.5	20.5	92	18.6	0	0	---	0.00	30.130 
02:25	20.5	20.5	20.5	92	18.6	0	0	---	0.00	30.126 
02:30	20.3	20.3	20.3	92	18.4	0	0	---	0.00	30.125 
02:35	20.3	20.3	20.3	92	18.4	0	0	---	0.00	30.127 
02:40	20.2	20.2	20.2	91	18.0	0	0	---	0.00	30.129 
02:45	20.0	20.0	20.0	91	17.8	0	0	---	0.00	30.129 
02:50	20.0	20.0	20.0	92	18.1	0	0	---	0.00	30.130 
02:55	20.2	20.2	20.2	92	18.3	0	0	---	0.00	30.130 
03:00	20.2	20.2	20.2	92	18.3	0	0	---	0.00	30.130 
03:05	20.2	20.2	20.2	92	18.3	0	0	---	0.00	30.133 
03:10	20.0	20.0	20.0	91	17.8	0	0	---	0.00	30.136 
03:15	20.0	20.0	20.0	92	18.1	0	0	---	0.00	30.138 
03:20	19.9	19.9	19.9	91	17.7	0	0	---	0.00	30.138 
03:25	19.9	19.9	19.9	91	17.7	0	0	---	0.00	30.139 
03:30	19.9	19.9	19.9	92	18.0	0	0	---	0.00	30.135 
03:35	19.9	19.9	19.9	92	18.0	0	0	---	0.00	30.135 
03:40	19.9	19.9	19.9	91	17.7	0	0	---	0.00	30.135 
03:45	19.7	19.7	19.7	92	17.8	0	0	---	0.00	30.132 
03:50	19.7	19.7	19.7	92	17.8	0	0	---	0.00	30.131 
03:55	19.7	19.7	19.7	91	17.5	0	0	---	0.00	30.129 
04:00	19.5	19.5	19.5	91	17.3	0	0	---	0.00	30.128 
04:05	19.5	19.5	19.5	91	17.3	0	0	---	0.00	30.132 
04:10	19.5	19.5	19.5	91	17.3	0	0	---	0.00	30.132 
04:15	19.4	19.4	19.4	91	17.2	0	0	---	0.00	30.133 
04:20	19.4	19.4	19.4	91	17.2	0	0	---	0.00	30.134 
04:25	19.4	19.4	19.4	92	17.5	0	0	---	0.00	30.133 
04:30	19.5	19.5	19.5	92	17.6	0	0	---	0.00	30.131 
04:35	19.5	19.5	19.5	92	17.6	0	0	---	0.00	30.131 
04:40	19.5	19.5	19.5	91	17.3	0	0	---	0.00	30.128 
04:45	19.4	19.4	19.4	91	17.2	0	0	---	0.00	30.122 
04:50	19.4	19.4	19.4	91	17.2	0	0	---	0.00	30.120 
04:55	19.2	19.2	19.2	91	17.0	0	0	---	0.00	30.122 
05:00	19.2	19.2	19.2	91	17.0	0	0	---	0.00	30.122 
05:05	19.1	19.1	19.1	91	16.9	0	0	---	0.00	30.127 
05:10	19.1	19.1	19.1	91	16.9	0	0	---	0.00	30.124 
05:15	19.1	19.1	19.1	91	16.9	0	0	---	0.00	30.124 
05:20	18.9	18.9	18.9	91	16.7	0	0	---	0.00	30.124 
05:25	18.9	18.9	18.9	91	16.7	0	0	---	0.00	30.123 
05:30	18.8	18.8	18.8	91	16.6	0	0	---	0.00	30.122 
05:35	18.8	18.8	18.8	91	16.6	0	0	---	0.00	30.123 
05:40	18.6	18.6	18.6	91	16.4	0	0	---	0.00	30.122 
05:45	18.6	18.6	18.6	91	16.4	0	0	---	0.00	30.120 
05:50	18.6	18.6	18.6	91	16.4	0	0	---	0.00	30.118 
05:55	18.6	18.6	18.6	91	16.4	0	0	---	0.00	30.121 
06:00	18.6	18.6	18.6	91	16.4	0	0	---	0.00	30.122 
06:05	18.6	18.6	18.6	91	16.4	0	0	---	0.00	30.125 
06:10	18.6	18.6	18.6	91	16.4	0	0	---	0.00	30.124 
06:15	18.4	18.4	18.4	91	16.2	0	0	---	0.00	30.122 
06:20	18.4	18.4	18.4	91	16.2	0	0	---	0.00	30.121 
06:25	18.4	18.4	18.4	91	16.2	0	0	---	0.00	30.119 
06:30	18.4	18.4	18.4	91	16.2	0	0	---	0.00	30.123 
06:35	18.4	18.4	18.4	91	16.2	0	0	---	0.00	30.125 
06:40	18.4	18.4	18.4	91	16.2	0	0	---	0.00	30.126 
06:45	18.6	18.6	18.6	91	16.4	0	0	---	0.00	30.127 
06:50	18.6	18.6	18.6	90	16.2	0	0	---	0.00	30.131 
06:55	18.4	18.4	18.4	90	16.0	0	0	---	0.00	30.137 
07:00	18.4	18.4	18.4	90	16.0	0	0	---	0.00	30.134 
07:05	18.3	18.3	18.3	90	15.9	0	0	---	0.00	30.136 
07:10	18.3	18.3	18.3	90	15.9	0	0	---	0.00	30.137 
07:15	18.4	18.4	18.4	91	16.2	0	1	270	0.00	30.137 
07:20	18.6	18.6	18.6	91	16.4	0	0	---	0.00	30.138 
07:25	18.9	18.9	18.9	91	16.7	0	1	270	0.00	30.137 
07:30	19.4	19.4	19.4	92	17.5	0	1	270	0.00	30.134 
07:35	20.0	20.0	20.0	92	18.1	0	0	---	0.00	30.131 
07:40	20.2	20.2	20.2	92	18.3	0	0	---	0.00	30.132 
07:45	20.0	20.0	20.0	92	18.1	0	0	---	0.00	30.133 
07:50	20.0	20.0	20.0	92	18.1	0	0	---	0.00	30.133 
07:55	20.0	20.0	20.0	92	18.1	0	0	---	0.00	30.134 
08:00	20.2	20.2	20.2	92	18.3	0	0	---	0.00	30.134 
08:05	20.3	20.3	20.3	92	18.4	0	1	270	0.00	30.134 
08:10	20.3	20.3	20.3	92	18.4	0	0	---	0.00	30.132 
08:15	20.5	20.5	20.5	92	18.6	0	0	---	0.00	30.131 
08:20	20.3	20.3	20.3	92	18.4	0	0	---	0.00	30.132 
08:25	20.3	20.3	20.3	92	18.4	0	0	---	0.00	30.136 
08:30	20.3	20.3	20.3	92	18.4	0	0	---	0.00	30.138 
08:35	20.3	20.3	20.3	92	18.4	0	0	---	0.00	30.134 
08:40	20.3	20.3	20.3	92	18.4	0	0	---	0.00	30.130 
08:45	20.5	20.5	20.5	92	18.6	0	0	---	0.00	30.128 
08:50	20.6	20.6	20.6	92	18.7	0	0	---	0.00	30.128 
08:55	21.0	21.0	21.0	92	19.0	0	0	---	0.00	30.126 
09:00	21.4	21.4	21.4	92	19.4	0	0	---	0.00	30.125 
09:05	22.2	22.2	22.2	93	20.5	0	1	270	0.00	30.125 
09:10	23.2	23.2	23.2	94	21.7	0	1	270	0.00	30.124 
09:15	23.9	23.9	23.9	94	22.4	0	1	270	0.00	30.121 
09:20	24.5	24.5	24.5	94	23.0	0	1	270	0.00	30.122 
09:25	24.8	24.8	24.8	94	23.3	0	1	270	0.00	30.122 
09:30	25.3	25.3	25.3	94	23.8	0	1	270	0.00	30.121 
09:35	25.6	25.6	25.6	94	24.1	0	1	270	0.00	30.120 
09:40	26.0	26.0	26.0	94	24.5	0	1	270	0.00	30.120 
09:45	26.4	26.4	26.4	94	24.9	0	1	270	0.00	30.119 
09:50	26.7	26.7	26.7	94	25.2	0	0	---	0.00	30.119 
09:55	27.0	27.0	27.0	94	25.5	0	1	270	0.00	30.120 
10:00	27.5	27.5	27.5	94	26.0	0	1	270	0.00	30.120 
10:05	27.9	27.9	27.9	94	26.4	0	1	270	0.00	30.119 
10:10	28.4	28.4	28.4	93	26.6	0	1	270	0.00	30.120 
10:15	28.7	28.7	28.7	93	26.9	0	2	270	0.00	30.119 
10:20	29.1	29.1	29.1	93	27.3	0	1	270	0.00	30.119 
10:25	29.5	29.5	29.5	93	27.7	0	2	270	0.00	30.119 
10:30	29.8	29.8	29.8	92	27.8	0	2	270	0.00	30.118 
10:35	30.3	30.3	30.3	91	28.0	0	1	270	0.00	30.117 
10:40	30.7	30.7	30.7	90	28.1	0	1	270	0.00	30.113 
10:45	31.2	31.2	31.2	90	28.6	0	1	270	0.00	30.109 
10:50	31.6	31.6	31.6	89	28.7	0	1	270	0.00	30.109 
10:55	32.1	32.1	32.1	88	29.0	0	2	270	0.00	30.103 
11:00	32.5	32.5	32.5	87	29.1	0	2	270	0.00	30.101 
11:05	32.8	32.8	32.8	85	28.8	0	1	270	0.00	30.100 
11:10	33.2	33.2	33.2	85	29.2	0	2	270	0.00	30.099 
11:15	33.8	33.8	33.8	84	29.5	0	2	270	0.00	30.093 
11:20	34.3	34.3	34.3	83	29.7	1	2	270	0.00	30.091 
11:25	34.4	34.4	34.4	82	29.5	0	1	270	0.00	30.088 
11:30	34.6	34.6	34.6	82	29.7	0	0	---	0.00	30.086 
11:35	34.9	34.9	34.9	81	29.7	0	1	270	0.00	30.084 
11:40	35.3	35.3	35.3	80	29.8	0	2	270	0.00	30.084 
11:45	35.9	35.9	35.9	77	29.4	0	1	270	0.00	30.080 
11:50	36.5	36.5	36.5	77	30.0	0	2	270	0.00	30.079 
11:55	36.9	36.9	36.9	74	29.4	0	1	270	0.00	30.077 
12:00	37.3	37.3	37.3	74	29.8	0	2	270	0.00	30.073 
12:05	37.8	37.8	37.8	74	30.3	0	1	270	0.00	30.072 
12:10	38.3	38.3	38.3	73	30.4	0	1	270	0.00	30.068 
12:15	38.9	38.9	38.9	72	30.7	0	1	270	0.00	30.064 
12:20	39.3	39.3	39.3	70	30.3	0	1	270	0.00	30.062 
12:25	39.6	39.6	39.6	67	29.6	0	2	270	0.00	30.061 
12:30	39.9	39.9	39.9	66	29.5	0	1	270	0.00	30.054 
12:35	40.2	40.2	40.2	64	29.0	0	2	270	0.00	30.049 
12:40	40.8	40.8	40.8	61	28.4	1	3	270	0.00	30.045 
12:45	41.3	41.3	41.3	61	28.9	1	3	270	0.00	30.039 
12:50	41.6	41.6	41.6	59	28.3	1	4	112	0.00	30.034 
12:55	41.8	41.8	41.8	61	29.4	0	3	112	0.00	30.031 
13:00	41.9	41.9	41.9	61	29.4	2	3	112	0.00	30.027 
13:05	42.1	42.1	42.1	62	30.0	1	4	112	0.00	30.017 
13:10	42.2	42.2	42.2	62	30.1	1	3	90	0.00	30.015 
13:15	42.2	42.2	42.2	61	29.7	1	4	90	0.00	30.014 
13:20	42.2	42.2	42.2	62	30.1	1	4	68	0.00	30.011 
13:25	42.3	42.3	42.3	62	30.2	2	4	90	0.00	30.003 
13:30	42.3	42.3	42.3	60	29.4	1	3	90	0.00	29.999 
13:35	42.5	42.5	42.5	60	29.6	2	4	112	0.00	29.994 
13:40	42.3	42.3	42.3	61	29.8	2	5	90	0.00	29.989 
13:45	42.5	42.5	42.5	62	30.4	2	5	90	0.00	29.982 
13:50	42.5	42.5	42.5	61	30.0	2	7	112	0.00	29.983 
13:55	42.5	42.5	42.5	60	29.6	2	5	112	0.00	29.976 
14:00	42.6	42.6	42.6	61	30.1	3	5	112	0.00	29.968 
14:05	42.6	42.6	42.6	60	29.7	2	5	112	0.00	29.967 
14:10	42.8	42.8	42.8	60	29.9	3	6	112	0.00	29.965 
14:15	42.8	42.8	42.8	59	29.5	3	6	112	0.00	29.963 
14:20	42.8	42.8	42.8	59	29.5	3	7	90	0.00	29.965 
14:25	42.8	42.8	42.8	59	29.5	3	6	90	0.00	29.955 
14:30	42.8	42.8	42.8	61	30.3	2	4	112	0.00	29.954 
14:35	42.8	42.8	42.8	61	30.3	2	6	135	0.00	29.956 
14:40	42.8	42.8	42.8	59	29.5	2	5	112	0.00	29.957 
14:45	42.9	42.9	42.9	60	30.0	3	7	90	0.00	29.955 
14:50	42.9	42.9	42.9	59	29.6	3	7	112	0.00	29.952 
14:55	42.9	42.9	42.9	58	29.2	2	6	90	0.00	29.952 
15:00	42.9	42.9	42.9	59	29.6	3	6	112	0.00	29.951 
15:05	42.9	42.9	42.9	59	29.6	3	5	112	0.00	29.950 
15:10	42.9	42.9	42.9	58	29.2	3	7	112	0.00	29.950 
15:15	42.9	42.9	42.9	59	29.6	3	9	90	0.00	29.950 
15:20	42.9	40.7	42.9	59	29.6	4	11	90	0.00	29.950 
15:25	42.8	40.6	42.8	57	28.6	4	9	112	0.00	29.951 
15:30	42.8	40.6	42.8	56	28.2	4	10	90	0.00	29.951 
15:35	42.8	42.8	42.8	57	28.6	3	9	112	0.00	29.953 
15:40	42.6	40.3	42.6	57	28.4	4	7	90	0.00	29.958 
15:45	42.6	42.6	42.6	57	28.4	2	9	135	0.00	29.963 
15:50	42.6	42.6	42.6	58	28.9	2	5	135	0.00	29.964 
15:55	42.5	42.5	42.5	58	28.8	3	9	112	0.00	29.964 
16:00	42.3	42.3	42.3	59	29.0	1	4	112	0.00	29.968 
16:05	42.2	42.2	42.2	60	29.3	2	5	112	0.00	29.968 
16:10	42.2	42.2	42.2	60	29.3	2	5	112	0.00	29.971 
16:15	42.1	42.1	42.1	60	29.2	2	5	90	0.00	29.976 
16:20	41.8	41.8	41.8	61	29.4	2	4	112	0.00	29.977 
16:25	41.5	41.5	41.5	62	29.5	1	3	112	0.00	29.980 
16:30	41.2	41.2	41.2	62	29.2	1	3	112	0.00	29.971 
16:35	40.9	40.9	40.9	63	29.3	1	3	112	0.00	29.971 
16:40	40.6	40.6	40.6	63	29.0	1	3	112	0.00	29.973 
16:45	40.5	40.5	40.5	64	29.3	1	2	112	0.00	29.979 
16:50	40.3	40.3	40.3	65	29.5	0	2	112	0.00	29.978 
16:55	40.1	40.1	40.1	65	29.3	0	1	112	0.00	29.977 
17:00	39.8	39.8	39.8	66	29.4	0	1	112	0.00	29.973 
17:05	39.3	39.3	39.3	67	29.3	0	2	112	0.00	29.974 
17:10	39.1	39.1	39.1	67	29.1	0	2	112	0.00	29.970 
17:15	38.8	38.8	38.8	68	29.2	1	3	112	0.00	29.969 
17:20	38.5	38.5	38.5	69	29.2	1	2	112	0.00	29.966 
17:25	38.0	38.0	38.0	69	28.7	0	1	112	0.00	29.969 
17:30	37.8	37.8	37.8	69	28.6	0	0	---	0.00	29.973 
17:35	37.3	37.3	37.3	70	28.4	0	0	---	0.00	29.973 
17:40	36.8	36.8	36.8	71	28.3	0	1	112	0.00	29.972 
17:45	36.2	36.2	36.2	73	28.4	0	0	---	0.00	29.973 
17:50	35.8	35.8	35.8	73	28.0	0	0	---	0.00	29.976 
17:55	35.3	35.3	35.3	74	27.9	0	0	---	0.00	29.979 
18:00	34.9	34.9	34.9	75	27.8	0	0	---	0.00	29.977 
18:05	34.6	34.6	34.6	77	28.1	0	0	---	0.00	29.978 
18:10	34.1	34.1	34.1	78	28.0	0	0	---	0.00	29.979 
18:15	33.8	33.8	33.8	78	27.7	0	0	---	0.00	29.975 
18:20	33.7	33.7	33.7	80	28.2	0	0	---	0.00	29.970 
18:25	33.5	33.5	33.5	81	28.3	0	0	---	0.00	29.963 
18:30	33.4	33.4	33.4	81	28.2	0	0	---	0.00	29.969 
18:35	33.2	33.2	33.2	82	28.3	0	0	---	0.00	29.965 
18:40	33.4	33.4	33.4	83	28.8	0	1	112	0.00	29.967 
18:45	33.5	33.5	33.5	83	28.9	0	1	112	0.00	29.965 
18:50	33.8	33.8	33.8	82	28.9	0	2	112	0.00	29.968 
18:55	34.0	34.0	34.0	81	28.8	0	1	112	0.00	29.965 
19:00	34.0	34.0	34.0	81	28.8	0	0	---	0.00	29.969 
19:05	33.8	33.8	33.8	81	28.6	0	0	---	0.00	29.973 
19:10	33.7	33.7	33.7	81	28.5	0	0	---	0.00	29.976 
19:15	33.5	33.5	33.5	81	28.3	0	0	---	0.00	29.976 
19:20	33.1	33.1	33.1	81	27.9	0	0	---	0.00	29.973 
19:25	32.5	32.5	32.5	81	27.3	0	0	---	0.00	29.960 
19:30	32.2	32.2	32.2	82	27.3	0	0	---	0.00	29.965 
19:35	31.9	31.9	31.9	83	27.3	0	0	---	0.00	29.966 
19:40	31.6	31.6	31.6	83	27.0	0	0	---	0.00	29.965 
19:45	31.6	31.6	31.6	85	27.6	0	0	---	0.00	29.964 
19:50	31.8	31.8	31.8	85	27.8	0	0	---	0.00	29.963 
19:55	31.8	31.8	31.8	85	27.8	0	1	112	0.00	29.963 
20:00	32.1	32.1	32.1	85	28.1	0	1	112	0.00	29.961 
20:05	32.5	32.5	32.5	85	28.5	0	1	112	0.00	29.962 
20:10	32.9	32.9	32.9	84	28.6	0	1	112	0.00	29.960 
20:15	33.1	33.1	33.1	83	28.5	0	0	---	0.00	29.960 
20:20	33.1	33.1	33.1	83	28.5	0	0	---	0.00	29.959 
20:25	32.9	32.9	32.9	83	28.3	0	0	---	0.00	29.959 
20:30	32.9	32.9	32.9	83	28.3	0	0	---	0.00	29.958 
20:35	32.9	32.9	32.9	83	28.3	0	0	---	0.00	29.958 
20:40	32.9	32.9	32.9	83	28.3	0	0	---	0.00	29.954 
20:45	32.8	32.8	32.8	83	28.2	0	0	---	0.00	29.944 
20:50	32.7	32.7	32.7	84	28.4	0	0	---	0.00	29.941 
20:55	32.7	32.7	32.7	84	28.4	0	0	---	0.00	29.937 
21:00	32.5	32.5	32.5	84	28.2	0	0	---	0.00	29.930 
21:05	32.5	32.5	32.5	84	28.2	0	1	112	0.00	29.921 
21:10	32.9	32.9	32.9	84	28.6	0	2	112	0.00	29.916 
21:15	33.2	33.2	33.2	83	28.6	1	3	112	0.00	29.905 
21:20	33.7	33.7	33.7	82	28.8	1	3	112	0.00	29.899 
21:25	33.8	33.8	33.8	82	28.9	1	3	112	0.00	29.899 
21:30	34.0	34.0	34.0	81	28.8	1	3	90	0.00	29.899 
21:35	34.1	34.1	34.1	81	28.9	1	2	90	0.00	29.899 
21:40	34.1	34.1	34.1	81	28.9	0	2	90	0.00	29.901 
21:45	34.1	34.1	34.1	81	28.9	0	2	90	0.00	29.898 
21:50	34.1	34.1	34.1	81	28.9	0	2	90	0.00	29.894 
21:55	34.0	34.0	34.0	81	28.8	0	2	90	0.00	29.893 
22:00	34.0	34.0	34.0	81	28.8	0	2	90	0.00	29.895 
22:05	34.1	34.1	34.1	81	28.9	0	1	90	0.00	29.886 
22:10	34.1	34.1	34.1	81	28.9	0	2	90	0.00	29.889 
22:15	34.1	34.1	34.1	81	28.9	0	1	90	0.00	29.894 
22:20	34.1	34.1	34.1	81	28.9	0	0	---	0.00	29.890 
22:25	34.3	34.3	34.3	81	29.1	0	2	90	0.00	29.886 
22:30	34.4	34.4	34.4	80	28.9	1	3	90	0.00	29.886 
22:35	34.4	34.4	34.4	80	28.9	0	2	90	0.00	29.885 
22:40	34.4	34.4	34.4	80	28.9	0	1	90	0.00	29.886 
22:45	34.3	34.3	34.3	80	28.8	0	0	---	0.00	29.888 
22:50	34.1	34.1	34.1	81	28.9	0	1	90	0.00	29.876 
22:55	34.0	34.0	34.0	81	28.8	0	2	90	0.00	29.869 
23:00	33.8	33.8	33.8	82	28.9	0	1	90	0.00	29.862 
23:05	33.8	33.8	33.8	82	28.9	0	1	90	0.00	29.849 
23:10	33.7	33.7	33.7	83	29.1	0	2	90	0.00	29.843 
23:15	33.5	33.5	33.5	83	28.9	0	1	90	0.00	29.835 
23:20	33.5	33.5	33.5	83	28.9	0	3	90	0.00	29.840 
23:25	33.5	33.5	33.5	84	29.2	0	1	90	0.00	29.850 
23:30	33.5	33.5	33.5	83	28.9	0	2	90	0.00	29.854 
23:35	33.5	33.5	33.5	83	28.9	0	1	90	0.00	29.850 
23:40	33.5	33.5	33.5	83	28.9	0	1	90	0.00	29.854 
23:45	33.5	33.5	33.5	83	28.9	0	1	90	0.00	29.862 
23:50	33.4	33.4	33.4	84	29.1	0	0	---	0.00	29.870 
23:55	33.4	33.4	33.4	84	29.1	0	0	---	0.00	29.880 

CoCoRaHS
IN-AL-39
A2 Web Hosting
Creative Commons License
GoDaddy
Look for:

loaded 2017-12-11 12:30:05 • last modified 2010-11-18 10:43:29
Privacy PolicyDisclaimer
• wx.awcolley.com is powered by PmWiki v.2002016 •
• all content (unless otherwise noted) © 2017 A W Colley